sensor_id;sensor_type;location;lat;lon;timestamp;P1;durP1;ratioP1;P2;durP2;ratioP2
61696;SDS011;47610;52.252;20.922;2023-01-05T00:02:01;7.20;;;5.30;;
61696;SDS011;47610;52.252;20.922;2023-01-05T00:07:04;9.10;;;6.00;;
61696;SDS011;47610;52.252;20.922;2023-01-05T00:12:11;7.90;;;5.30;;
61696;SDS011;47610;52.252;20.922;2023-01-05T00:17:15;7.20;;;5.10;;
61696;SDS011;47610;52.252;20.922;2023-01-05T00:22:22;5.90;;;4.50;;
61696;SDS011;47610;52.252;20.922;2023-01-05T00:27:27;7.50;;;5.10;;
61696;SDS011;47610;52.252;20.922;2023-01-05T00:32:33;14.50;;;9.20;;
61696;SDS011;47610;52.252;20.922;2023-01-05T00:37:37;8.10;;;5.70;;
61696;SDS011;47610;52.252;20.922;2023-01-05T00:42:42;7.80;;;4.80;;
61696;SDS011;47610;52.252;20.922;2023-01-05T00:47:46;6.30;;;4.90;;
61696;SDS011;47610;52.252;20.922;2023-01-05T00:52:50;7.30;;;4.30;;
61696;SDS011;47610;52.252;20.922;2023-01-05T00:57:54;1.70;;;1.20;;
61696;SDS011;47610;52.252;20.922;2023-01-05T01:10:02;6.90;;;3.70;;
61696;SDS011;47610;52.252;20.922;2023-01-05T01:15:09;5.90;;;4.00;;
61696;SDS011;47610;52.252;20.922;2023-01-05T01:20:14;5.10;;;3.70;;
61696;SDS011;47610;52.252;20.922;2023-01-05T01:25:18;4.80;;;3.60;;
61696;SDS011;47610;52.252;20.922;2023-01-05T01:30:22;5.30;;;3.80;;
61696;SDS011;47610;52.252;20.922;2023-01-05T01:35:26;5.00;;;3.20;;
61696;SDS011;47610;52.252;20.922;2023-01-05T01:40:30;5.90;;;3.90;;
61696;SDS011;47610;52.252;20.922;2023-01-05T01:45:42;5.50;;;3.40;;
61696;SDS011;47610;52.252;20.922;2023-01-05T01:50:49;4.50;;;3.10;;
61696;SDS011;47610;52.252;20.922;2023-01-05T01:55:56;4.00;;;2.50;;
61696;SDS011;47610;52.252;20.922;2023-01-05T02:01:04;4.80;;;3.10;;
61696;SDS011;47610;52.252;20.922;2023-01-05T02:06:07;5.50;;;3.10;;
61696;SDS011;47610;52.252;20.922;2023-01-05T02:11:16;5.00;;;2.70;;
61696;SDS011;47610;52.252;20.922;2023-01-05T02:16:38;4.10;;;2.40;;
61696;SDS011;47610;52.252;20.922;2023-01-05T02:21:51;3.90;;;2.60;;
61696;SDS011;47610;52.252;20.922;2023-01-05T02:27:10;4.60;;;2.40;;
61696;SDS011;47610;52.252;20.922;2023-01-05T02:32:46;4.80;;;2.80;;
61696;SDS011;47610;52.252;20.922;2023-01-05T02:38:00;4.80;;;2.90;;
61696;SDS011;47610;52.252;20.922;2023-01-05T02:43:13;4.00;;;2.60;;
61696;SDS011;47610;52.252;20.922;2023-01-05T02:48:19;5.10;;;2.60;;
61696;SDS011;47610;52.252;20.922;2023-01-05T02:53:25;3.90;;;2.70;;
61696;SDS011;47610;52.252;20.922;2023-01-05T02:58:34;4.60;;;2.50;;
61696;SDS011;47610;52.252;20.922;2023-01-05T03:03:43;3.30;;;2.60;;
61696;SDS011;47610;52.252;20.922;2023-01-05T03:08:51;4.00;;;2.50;;
61696;SDS011;47610;52.252;20.922;2023-01-05T03:13:59;3.70;;;2.50;;
61696;SDS011;47610;52.252;20.922;2023-01-05T03:28:57;3.70;;;2.60;;
61696;SDS011;47610;52.252;20.922;2023-01-05T03:34:05;4.70;;;2.30;;
61696;SDS011;47610;52.252;20.922;2023-01-05T03:39:12;4.00;;;2.10;;
61696;SDS011;47610;52.252;20.922;2023-01-05T03:44:18;2.70;;;2.20;;
61696;SDS011;47610;52.252;20.922;2023-01-05T03:49:23;6.30;;;2.30;;
61696;SDS011;47610;52.252;20.922;2023-01-05T03:54:28;4.40;;;2.30;;
61696;SDS011;47610;52.252;20.922;2023-01-05T03:59:31;2.20;;;1.70;;
61696;SDS011;47610;52.252;20.922;2023-01-05T04:04:35;3.60;;;2.00;;
61696;SDS011;47610;52.252;20.922;2023-01-05T04:09:38;3.70;;;1.80;;
61696;SDS011;47610;52.252;20.922;2023-01-05T04:14:43;2.50;;;1.60;;
61696;SDS011;47610;52.252;20.922;2023-01-05T04:19:46;3.00;;;1.70;;
61696;SDS011;47610;52.252;20.922;2023-01-05T04:24:52;2.80;;;1.80;;
61696;SDS011;47610;52.252;20.922;2023-01-05T04:29:56;3.60;;;1.90;;
61696;SDS011;47610;52.252;20.922;2023-01-05T04:34:59;3.90;;;1.80;;
61696;SDS011;47610;52.252;20.922;2023-01-05T04:40:09;2.90;;;1.50;;
61696;SDS011;47610;52.252;20.922;2023-01-05T04:45:16;3.60;;;1.90;;
61696;SDS011;47610;52.252;20.922;2023-01-05T04:50:19;3.20;;;2.00;;
61696;SDS011;47610;52.252;20.922;2023-01-05T04:55:23;2.10;;;1.60;;
61696;SDS011;47610;52.252;20.922;2023-01-05T05:00:27;2.80;;;1.70;;
61696;SDS011;47610;52.252;20.922;2023-01-05T05:05:31;3.00;;;2.10;;
61696;SDS011;47610;52.252;20.922;2023-01-05T05:10:35;2.80;;;1.90;;
61696;SDS011;47610;52.252;20.922;2023-01-05T05:15:39;4.40;;;2.50;;
61696;SDS011;47610;52.252;20.922;2023-01-05T05:20:46;3.60;;;2.40;;
61696;SDS011;47610;52.252;20.922;2023-01-05T05:25:52;5.40;;;3.00;;
61696;SDS011;47610;52.252;20.922;2023-01-05T05:30:56;3.60;;;2.20;;
61696;SDS011;47610;52.252;20.922;2023-01-05T05:35:59;3.50;;;2.20;;
61696;SDS011;47610;52.252;20.922;2023-01-05T05:47:51;3.30;;;2.10;;
61696;SDS011;47610;52.252;20.922;2023-01-05T05:52:55;16.00;;;9.10;;
61696;SDS011;47610;52.252;20.922;2023-01-05T05:57:59;17.20;;;9.10;;
61696;SDS011;47610;52.252;20.922;2023-01-05T06:03:03;3.50;;;1.90;;
61696;SDS011;47610;52.252;20.922;2023-01-05T06:13:10;3.60;;;1.20;;
61696;SDS011;47610;52.252;20.922;2023-01-05T06:18:16;2.90;;;1.20;;
61696;SDS011;47610;52.252;20.922;2023-01-05T06:23:19;3.20;;;1.30;;
61696;SDS011;47610;52.252;20.922;2023-01-05T06:28:24;2.40;;;1.10;;
61696;SDS011;47610;52.252;20.922;2023-01-05T06:33:27;3.10;;;1.20;;
61696;SDS011;47610;52.252;20.922;2023-01-05T06:38:31;2.90;;;1.60;;
61696;SDS011;47610;52.252;20.922;2023-01-05T06:43:35;3.30;;;1.50;;
61696;SDS011;47610;52.252;20.922;2023-01-05T06:48:39;2.00;;;1.20;;
61696;SDS011;47610;52.252;20.922;2023-01-05T06:53:42;3.00;;;1.50;;
61696;SDS011;47610;52.252;20.922;2023-01-05T06:58:46;3.10;;;1.30;;
61696;SDS011;47610;52.252;20.922;2023-01-05T07:03:49;3.30;;;1.30;;
61696;SDS011;47610;52.252;20.922;2023-01-05T07:08:53;6.10;;;1.90;;
61696;SDS011;47610;52.252;20.922;2023-01-05T07:13:57;3.70;;;1.80;;
61696;SDS011;47610;52.252;20.922;2023-01-05T07:19:01;3.70;;;2.00;;
61696;SDS011;47610;52.252;20.922;2023-01-05T07:24:08;6.10;;;2.20;;
61696;SDS011;47610;52.252;20.922;2023-01-05T07:29:15;7.60;;;2.30;;
61696;SDS011;47610;52.252;20.922;2023-01-05T07:34:19;6.00;;;2.70;;
61696;SDS011;47610;52.252;20.922;2023-01-05T07:39:24;3.90;;;2.50;;
61696;SDS011;47610;52.252;20.922;2023-01-05T07:44:29;5.00;;;2.70;;
61696;SDS011;47610;52.252;20.922;2023-01-05T07:49:32;3.40;;;2.20;;
61696;SDS011;47610;52.252;20.922;2023-01-05T07:54:35;18.80;;;9.10;;
61696;SDS011;47610;52.252;20.922;2023-01-05T08:06:43;4.80;;;2.90;;
61696;SDS011;47610;52.252;20.922;2023-01-05T08:11:46;3.70;;;2.80;;
61696;SDS011;47610;52.252;20.922;2023-01-05T08:16:51;4.50;;;2.70;;
61696;SDS011;47610;52.252;20.922;2023-01-05T08:21:55;4.70;;;2.20;;
61696;SDS011;47610;52.252;20.922;2023-01-05T08:26:59;5.10;;;1.80;;
61696;SDS011;47610;52.252;20.922;2023-01-05T08:32:02;7.10;;;2.50;;
61696;SDS011;47610;52.252;20.922;2023-01-05T08:37:08;3.60;;;1.90;;
61696;SDS011;47610;52.252;20.922;2023-01-05T08:42:11;4.90;;;2.10;;
61696;SDS011;47610;52.252;20.922;2023-01-05T08:47:15;6.00;;;2.20;;
61696;SDS011;47610;52.252;20.922;2023-01-05T08:52:19;4.40;;;3.00;;
61696;SDS011;47610;52.252;20.922;2023-01-05T08:57:25;5.30;;;2.50;;
61696;SDS011;47610;52.252;20.922;2023-01-05T09:02:29;14.00;;;3.30;;
61696;SDS011;47610;52.252;20.922;2023-01-05T09:07:32;4.70;;;2.40;;
61696;SDS011;47610;52.252;20.922;2023-01-05T09:12:36;4.30;;;2.30;;
61696;SDS011;47610;52.252;20.922;2023-01-05T09:17:40;3.90;;;1.40;;
61696;SDS011;47610;52.252;20.922;2023-01-05T09:22:43;3.30;;;1.50;;
61696;SDS011;47610;52.252;20.922;2023-01-05T09:27:49;4.10;;;1.30;;
61696;SDS011;47610;52.252;20.922;2023-01-05T09:32:55;9.20;;;4.50;;
61696;SDS011;47610;52.252;20.922;2023-01-05T09:37:58;4.50;;;1.70;;
61696;SDS011;47610;52.252;20.922;2023-01-05T09:43:02;3.80;;;2.20;;
61696;SDS011;47610;52.252;20.922;2023-01-05T09:48:08;5.60;;;1.60;;
61696;SDS011;47610;52.252;20.922;2023-01-05T09:53:21;2.30;;;1.50;;
61696;SDS011;47610;52.252;20.922;2023-01-05T09:58:32;5.10;;;1.40;;
61696;SDS011;47610;52.252;20.922;2023-01-05T10:03:53;3.00;;;1.30;;
61696;SDS011;47610;52.252;20.922;2023-01-05T10:09:00;3.30;;;1.50;;
61696;SDS011;47610;52.252;20.922;2023-01-05T10:14:08;6.00;;;1.50;;
61696;SDS011;47610;52.252;20.922;2023-01-05T10:29:36;5.70;;;1.80;;
61696;SDS011;47610;52.252;20.922;2023-01-05T10:34:53;3.70;;;1.80;;
61696;SDS011;47610;52.252;20.922;2023-01-05T10:40:03;4.70;;;1.90;;
61696;SDS011;47610;52.252;20.922;2023-01-05T10:45:19;6.40;;;2.50;;
61696;SDS011;47610;52.252;20.922;2023-01-05T10:50:36;4.00;;;1.80;;
61696;SDS011;47610;52.252;20.922;2023-01-05T10:55:46;5.80;;;2.40;;
61696;SDS011;47610;52.252;20.922;2023-01-05T11:00:59;6.10;;;1.80;;
61696;SDS011;47610;52.252;20.922;2023-01-05T11:06:07;6.90;;;2.40;;
61696;SDS011;47610;52.252;20.922;2023-01-05T11:11:23;8.00;;;2.50;;
61696;SDS011;47610;52.252;20.922;2023-01-05T11:16:32;8.40;;;2.80;;
61696;SDS011;47610;52.252;20.922;2023-01-05T11:21:47;6.50;;;2.70;;
61696;SDS011;47610;52.252;20.922;2023-01-05T11:26:51;7.70;;;3.10;;
61696;SDS011;47610;52.252;20.922;2023-01-05T11:32:00;7.90;;;2.60;;
61696;SDS011;47610;52.252;20.922;2023-01-05T11:42:33;6.00;;;2.20;;
61696;SDS011;47610;52.252;20.922;2023-01-05T11:47:44;3.50;;;1.90;;
61696;SDS011;47610;52.252;20.922;2023-01-05T11:52:56;4.10;;;2.10;;
61696;SDS011;47610;52.252;20.922;2023-01-05T11:58:19;6.10;;;2.00;;
61696;SDS011;47610;52.252;20.922;2023-01-05T12:03:29;6.10;;;1.90;;
61696;SDS011;47610;52.252;20.922;2023-01-05T12:08:58;6.30;;;1.90;;
61696;SDS011;47610;52.252;20.922;2023-01-05T12:14:15;4.90;;;1.80;;
61696;SDS011;47610;52.252;20.922;2023-01-05T12:19:38;7.10;;;2.50;;
61696;SDS011;47610;52.252;20.922;2023-01-05T12:25:07;6.40;;;1.40;;
61696;SDS011;47610;52.252;20.922;2023-01-05T12:30:25;4.80;;;1.90;;
61696;SDS011;47610;52.252;20.922;2023-01-05T12:35:55;5.10;;;1.50;;
61696;SDS011;47610;52.252;20.922;2023-01-05T12:51:47;4.20;;;1.40;;
61696;SDS011;47610;52.252;20.922;2023-01-05T12:56:57;6.20;;;1.60;;
61696;SDS011;47610;52.252;20.922;2023-01-05T13:02:15;5.10;;;1.70;;
61696;SDS011;47610;52.252;20.922;2023-01-05T13:07:34;4.00;;;1.50;;
61696;SDS011;47610;52.252;20.922;2023-01-05T13:12:43;4.40;;;1.20;;
61696;SDS011;47610;52.252;20.922;2023-01-05T13:17:50;5.30;;;1.40;;
61696;SDS011;47610;52.252;20.922;2023-01-05T13:23:02;2.60;;;1.30;;
61696;SDS011;47610;52.252;20.922;2023-01-05T13:28:19;7.10;;;1.60;;
61696;SDS011;47610;52.252;20.922;2023-01-05T13:33:40;3.80;;;1.10;;
61696;SDS011;47610;52.252;20.922;2023-01-05T13:39:12;3.90;;;1.30;;
61696;SDS011;47610;52.252;20.922;2023-01-05T13:44:55;8.40;;;1.70;;
61696;SDS011;47610;52.252;20.922;2023-01-05T13:50:25;3.60;;;1.20;;
61696;SDS011;47610;52.252;20.922;2023-01-05T13:55:52;3.30;;;1.10;;
61696;SDS011;47610;52.252;20.922;2023-01-05T14:01:00;6.50;;;1.60;;
61696;SDS011;47610;52.252;20.922;2023-01-05T14:06:13;5.80;;;1.60;;
61696;SDS011;47610;52.252;20.922;2023-01-05T14:11:24;5.20;;;1.80;;
61696;SDS011;47610;52.252;20.922;2023-01-05T14:16:56;4.00;;;1.80;;
61696;SDS011;47610;52.252;20.922;2023-01-05T14:22:04;5.70;;;1.50;;
61696;SDS011;47610;52.252;20.922;2023-01-05T14:27:26;4.40;;;1.40;;
61696;SDS011;47610;52.252;20.922;2023-01-05T14:32:30;5.10;;;1.70;;
61696;SDS011;47610;52.252;20.922;2023-01-05T14:37:40;6.10;;;1.90;;
61696;SDS011;47610;52.252;20.922;2023-01-05T14:42:51;6.40;;;1.70;;
61696;SDS011;47610;52.252;20.922;2023-01-05T14:47:58;5.60;;;1.80;;
61696;SDS011;47610;52.252;20.922;2023-01-05T14:53:09;4.80;;;1.80;;
61696;SDS011;47610;52.252;20.922;2023-01-05T15:17:54;5.90;;;2.20;;
61696;SDS011;47610;52.252;20.922;2023-01-05T15:23:22;6.30;;;2.30;;
61696;SDS011;47610;52.252;20.922;2023-01-05T15:28:42;6.70;;;2.50;;
61696;SDS011;47610;52.252;20.922;2023-01-05T15:34:11;8.10;;;2.50;;
61696;SDS011;47610;52.252;20.922;2023-01-05T15:39:28;9.80;;;2.40;;
61696;SDS011;47610;52.252;20.922;2023-01-05T15:44:37;8.90;;;2.70;;
61696;SDS011;47610;52.252;20.922;2023-01-05T15:49:46;5.10;;;2.20;;
61696;SDS011;47610;52.252;20.922;2023-01-05T15:55:00;4.20;;;1.80;;
61696;SDS011;47610;52.252;20.922;2023-01-05T16:00:16;4.80;;;1.90;;
61696;SDS011;47610;52.252;20.922;2023-01-05T16:05:24;4.20;;;1.90;;
61696;SDS011;47610;52.252;20.922;2023-01-05T16:10:34;3.70;;;1.50;;
61696;SDS011;47610;52.252;20.922;2023-01-05T16:15:39;7.10;;;1.60;;
61696;SDS011;47610;52.252;20.922;2023-01-05T16:20:46;3.00;;;1.30;;
61696;SDS011;47610;52.252;20.922;2023-01-05T16:25:53;6.70;;;1.60;;
61696;SDS011;47610;52.252;20.922;2023-01-05T16:31:00;2.30;;;1.00;;
61696;SDS011;47610;52.252;20.922;2023-01-05T16:36:18;3.20;;;1.40;;
61696;SDS011;47610;52.252;20.922;2023-01-05T16:41:25;4.00;;;1.50;;
61696;SDS011;47610;52.252;20.922;2023-01-05T16:46:37;3.10;;;1.40;;
61696;SDS011;47610;52.252;20.922;2023-01-05T16:51:42;2.20;;;1.20;;
61696;SDS011;47610;52.252;20.922;2023-01-05T16:56:47;3.20;;;1.50;;
61696;SDS011;47610;52.252;20.922;2023-01-05T17:01:53;2.20;;;1.10;;
61696;SDS011;47610;52.252;20.922;2023-01-05T17:06:57;2.80;;;1.30;;
61696;SDS011;47610;52.252;20.922;2023-01-05T17:12:01;3.00;;;1.60;;
61696;SDS011;47610;52.252;20.922;2023-01-05T17:17:04;2.40;;;1.30;;
61696;SDS011;47610;52.252;20.922;2023-01-05T17:30:38;5.80;;;1.50;;
61696;SDS011;47610;52.252;20.922;2023-01-05T17:35:42;5.50;;;2.00;;
61696;SDS011;47610;52.252;20.922;2023-01-05T17:40:50;3.60;;;1.60;;
61696;SDS011;47610;52.252;20.922;2023-01-05T17:45:57;3.10;;;1.50;;
61696;SDS011;47610;52.252;20.922;2023-01-05T17:51:03;4.10;;;2.00;;
61696;SDS011;47610;52.252;20.922;2023-01-05T17:56:08;4.50;;;1.60;;
61696;SDS011;47610;52.252;20.922;2023-01-05T18:01:11;3.00;;;1.80;;
61696;SDS011;47610;52.252;20.922;2023-01-05T18:06:14;2.50;;;1.40;;
61696;SDS011;47610;52.252;20.922;2023-01-05T18:11:18;2.10;;;1.20;;
61696;SDS011;47610;52.252;20.922;2023-01-05T18:16:46;2.30;;;1.60;;
61696;SDS011;47610;52.252;20.922;2023-01-05T18:21:49;2.70;;;1.40;;
61696;SDS011;47610;52.252;20.922;2023-01-05T18:26:54;2.20;;;1.10;;
61696;SDS011;47610;52.252;20.922;2023-01-05T18:31:59;2.80;;;1.40;;
61696;SDS011;47610;52.252;20.922;2023-01-05T18:37:05;2.50;;;1.20;;
61696;SDS011;47610;52.252;20.922;2023-01-05T18:42:10;2.40;;;1.40;;
61696;SDS011;47610;52.252;20.922;2023-01-05T18:47:14;2.80;;;1.50;;
61696;SDS011;47610;52.252;20.922;2023-01-05T18:52:18;3.10;;;1.40;;
61696;SDS011;47610;52.252;20.922;2023-01-05T18:57:21;2.90;;;1.40;;
61696;SDS011;47610;52.252;20.922;2023-01-05T19:02:28;3.40;;;1.50;;
61696;SDS011;47610;52.252;20.922;2023-01-05T19:07:36;4.20;;;1.70;;
61696;SDS011;47610;52.252;20.922;2023-01-05T19:12:40;3.20;;;1.60;;
61696;SDS011;47610;52.252;20.922;2023-01-05T19:17:45;1.90;;;1.50;;
61696;SDS011;47610;52.252;20.922;2023-01-05T19:22:50;3.00;;;1.80;;
61696;SDS011;47610;52.252;20.922;2023-01-05T19:27:53;3.20;;;2.30;;
61696;SDS011;47610;52.252;20.922;2023-01-05T19:32:58;6.30;;;2.80;;
61696;SDS011;47610;52.252;20.922;2023-01-05T19:38:01;2.70;;;1.80;;
61696;SDS011;47610;52.252;20.922;2023-01-05T19:43:05;3.00;;;1.90;;
61696;SDS011;47610;52.252;20.922;2023-01-05T19:48:12;3.10;;;2.10;;
61696;SDS011;47610;52.252;20.922;2023-01-05T19:53:15;3.30;;;2.10;;
61696;SDS011;47610;52.252;20.922;2023-01-05T19:58:18;3.60;;;2.30;;
61696;SDS011;47610;52.252;20.922;2023-01-05T20:03:23;3.40;;;2.40;;
61696;SDS011;47610;52.252;20.922;2023-01-05T20:08:26;3.50;;;2.30;;
61696;SDS011;47610;52.252;20.922;2023-01-05T20:13:30;3.70;;;2.30;;
61696;SDS011;47610;52.252;20.922;2023-01-05T20:18:34;3.30;;;2.20;;
61696;SDS011;47610;52.252;20.922;2023-01-05T20:23:39;2.90;;;2.10;;
61696;SDS011;47610;52.252;20.922;2023-01-05T21:32:29;4.10;;;2.40;;
61696;SDS011;47610;52.252;20.922;2023-01-05T21:37:32;4.40;;;2.60;;
61696;SDS011;47610;52.252;20.922;2023-01-05T21:42:36;3.00;;;2.20;;
61696;SDS011;47610;52.252;20.922;2023-01-05T21:47:40;3.70;;;2.60;;
61696;SDS011;47610;52.252;20.922;2023-01-05T21:52:44;2.90;;;2.20;;
61696;SDS011;47610;52.252;20.922;2023-01-05T21:57:47;2.90;;;2.40;;
61696;SDS011;47610;52.252;20.922;2023-01-05T22:02:52;3.00;;;2.20;;
61696;SDS011;47610;52.252;20.922;2023-01-05T22:07:58;4.60;;;3.00;;
61696;SDS011;47610;52.252;20.922;2023-01-05T22:13:02;3.30;;;2.50;;
61696;SDS011;47610;52.252;20.922;2023-01-05T22:18:06;12.80;;;7.40;;
61696;SDS011;47610;52.252;20.922;2023-01-05T22:23:09;5.40;;;3.50;;
61696;SDS011;47610;52.252;20.922;2023-01-05T22:28:13;3.90;;;2.70;;
61696;SDS011;47610;52.252;20.922;2023-01-05T22:33:17;4.40;;;3.10;;
61696;SDS011;47610;52.252;20.922;2023-01-05T23:34:08;3.70;;;2.70;;
61696;SDS011;47610;52.252;20.922;2023-01-05T23:39:12;3.50;;;2.70;;
61696;SDS011;47610;52.252;20.922;2023-01-05T23:44:15;4.30;;;3.10;;
61696;SDS011;47610;52.252;20.922;2023-01-05T23:49:19;6.60;;;4.30;;
61696;SDS011;47610;52.252;20.922;2023-01-05T23:54:22;6.00;;;3.30;;
61696;SDS011;47610;52.252;20.922;2023-01-05T23:59:29;4.50;;;3.40;;
